createdAt,value
2019-04-26T00:00:48.388Z,15.07
2019-04-26T00:03:20.583Z,15.04
2019-04-26T00:05:49.831Z,15.05
2019-04-26T00:08:19.180Z,15.02
2019-04-26T00:11:03.012Z,14.94
2019-04-26T00:14:03.752Z,14.91
2019-04-26T00:16:46.279Z,14.84
2019-04-26T00:19:15.761Z,14.79
2019-04-26T00:21:44.927Z,14.73
2019-04-26T00:24:15.185Z,14.75
2019-04-26T00:26:43.428Z,14.70
2019-04-26T00:29:12.725Z,14.67
2019-04-26T00:31:41.917Z,14.68
2019-04-26T00:34:12.104Z,14.61
2019-04-26T00:36:40.317Z,14.61
2019-04-26T00:39:09.621Z,14.54
2019-04-26T00:41:39.045Z,14.57
2019-04-26T00:44:08.745Z,14.51
2019-04-26T00:46:38.005Z,14.41
2019-04-26T00:49:07.283Z,14.38
2019-04-26T00:51:36.772Z,14.36
2019-04-26T00:54:06.010Z,14.35
2019-04-26T00:56:35.219Z,14.28
2019-04-26T00:59:04.867Z,14.32
2019-04-26T01:01:35.723Z,14.28
2019-04-26T01:04:05.217Z,14.25
2019-04-26T01:06:35.045Z,14.23
2019-04-26T01:09:05.585Z,14.18
2019-04-26T01:11:34.814Z,14.15
2019-04-26T01:14:04.066Z,14.11
2019-04-26T01:16:33.281Z,14.12
2019-04-26T01:19:02.527Z,14.13
2019-04-26T01:21:37.330Z,14.08
2019-04-26T01:24:06.565Z,14.09
2019-04-26T01:26:35.802Z,14.01
2019-04-26T01:29:06.051Z,14.04
2019-04-26T01:31:38.545Z,14.03
2019-04-26T01:34:07.769Z,14.02
2019-04-26T01:36:37.354Z,13.96
2019-04-26T01:39:14.713Z,13.92
2019-04-26T01:41:46.663Z,13.91
2019-04-26T01:44:37.563Z,13.91
2019-04-26T01:47:06.743Z,13.80
2019-04-26T01:49:36.252Z,13.79
2019-04-26T01:52:07.065Z,13.73
2019-04-26T01:54:39.076Z,13.66
2019-04-26T01:57:08.265Z,13.63
2019-04-26T01:59:37.897Z,13.62
2019-04-26T02:02:29.848Z,13.63
2019-04-26T02:05:00.055Z,13.54
2019-04-26T02:07:41.777Z,13.51
2019-04-26T02:10:15.481Z,13.48
2019-04-26T02:12:45.590Z,13.48
2019-04-26T02:15:15.325Z,13.39
2019-04-26T02:17:44.723Z,13.33
2019-04-26T02:20:14.037Z,13.28
2019-04-26T02:23:04.354Z,13.26
2019-04-26T02:25:34.276Z,13.22
2019-04-26T02:28:02.910Z,13.23
2019-04-26T02:30:33.287Z,13.27
2019-04-26T02:33:01.515Z,13.30
2019-04-26T02:35:32.141Z,13.23
2019-04-26T02:38:00.110Z,13.25
2019-04-26T02:40:30.118Z,13.20
2019-04-26T02:42:58.675Z,13.17
2019-04-26T02:45:54.094Z,13.13
2019-04-26T02:48:42.421Z,13.08
2019-04-26T02:51:14.442Z,13.10
2019-04-26T02:53:58.180Z,13.03
2019-04-26T02:56:52.795Z,12.98
2019-04-26T02:59:32.361Z,12.98
2019-04-26T03:02:01.017Z,12.91
2019-04-26T03:04:30.989Z,12.85
2019-04-26T03:07:03.492Z,12.83
2019-04-26T03:09:31.255Z,12.77
2019-04-26T03:11:58.647Z,12.78
2019-04-26T03:14:45.063Z,12.73
2019-04-26T03:17:21.736Z,12.66
2019-04-26T03:19:57.781Z,12.63
2019-04-26T03:23:00.719Z,12.61
2019-04-26T03:25:38.842Z,12.54
2019-04-26T03:28:21.473Z,12.48
2019-04-26T03:31:06.527Z,12.44
2019-04-26T03:34:01.624Z,12.45
2019-04-26T03:36:44.287Z,12.44
2019-04-26T03:39:20.438Z,12.46
2019-04-26T03:42:13.400Z,12.48
2019-04-26T03:45:07.863Z,12.45
2019-04-26T03:47:40.160Z,12.48
2019-04-26T03:50:15.421Z,12.43
2019-04-26T03:53:07.615Z,12.40
2019-04-26T03:56:11.950Z,12.42
2019-04-26T03:59:19.129Z,12.37
2019-04-26T04:02:13.400Z,12.33
2019-04-26T04:04:50.110Z,12.27
2019-04-26T04:07:35.638Z,12.26
2019-04-26T04:09:49.800Z,12.22
2019-04-26T04:12:44.414Z,12.20
2019-04-26T04:15:14.495Z,12.20
2019-04-26T04:17:52.430Z,12.13
2019-04-26T04:21:26.446Z,12.20
2019-04-26T04:24:16.151Z,12.18
2019-04-26T04:27:07.882Z,12.17
2019-04-26T04:30:21.604Z,12.19
2019-04-26T04:33:22.348Z,12.17
2019-04-26T04:35:53.566Z,12.12
2019-04-26T04:38:32.696Z,12.13
2019-04-26T04:41:30.777Z,12.13
2019-04-26T04:44:15.609Z,12.19
2019-04-26T04:47:24.616Z,12.18
2019-04-26T04:50:20.248Z,12.24
2019-04-26T04:53:19.872Z,12.23
2019-04-26T04:56:30.909Z,12.21
2019-04-26T04:59:01.243Z,12.18
2019-04-26T05:01:59.023Z,12.08
2019-04-26T05:04:32.917Z,12.11
2019-04-26T05:07:13.601Z,12.17
2019-04-26T05:10:07.351Z,12.16
2019-04-26T05:12:57.023Z,12.27
2019-04-26T05:15:57.821Z,12.24
2019-04-26T05:18:56.805Z,12.31
2019-04-26T05:21:32.081Z,12.27
2019-04-26T05:24:11.743Z,12.31
2019-04-26T05:27:42.513Z,12.40
2019-04-26T05:30:41.673Z,12.49
2019-04-26T05:33:57.631Z,12.50
2019-04-26T05:36:50.564Z,12.43
2019-04-26T05:39:28.448Z,12.50
2019-04-26T05:42:28.387Z,12.54
2019-04-26T05:45:36.819Z,12.45
2019-04-26T05:48:37.777Z,12.44
2019-04-26T05:51:55.687Z,12.54
2019-04-26T05:54:58.196Z,12.51
2019-04-26T05:58:08.389Z,12.74
2019-04-26T06:01:23.321Z,12.89
2019-04-26T06:04:23.331Z,13.06
2019-04-26T06:07:16.987Z,13.17
2019-04-26T06:10:23.494Z,13.22
2019-04-26T06:13:02.963Z,13.21
2019-04-26T06:15:48.719Z,13.18
2019-04-26T06:19:12.591Z,13.24
2019-04-26T06:22:10.980Z,13.26
2019-04-26T06:24:59.137Z,13.29
2019-04-26T06:27:59.299Z,13.24
2019-04-26T06:30:45.352Z,13.35
2019-04-26T06:33:15.400Z,13.30
2019-04-26T06:35:44.625Z,13.11
2019-04-26T06:39:12.535Z,13.20
2019-04-26T06:42:17.511Z,13.10
2019-04-26T06:45:45.773Z,13.35
2019-04-26T06:48:50.907Z,13.66
2019-04-26T06:51:24.852Z,13.95
2019-04-26T06:54:19.730Z,14.08
2019-04-26T06:57:24.590Z,14.17
2019-04-26T07:00:17.172Z,14.08
2019-04-26T07:03:07.808Z,14.09
2019-04-26T07:05:36.632Z,14.17
2019-04-26T07:08:38.062Z,13.92
2019-04-26T07:11:33.346Z,14.09
2019-04-26T07:14:38.204Z,14.09
2019-04-26T07:17:10.282Z,14.20
2019-04-26T07:20:22.780Z,14.36
2019-04-26T07:23:27.798Z,14.44
2019-04-26T07:26:46.611Z,14.57
2019-04-26T07:29:38.075Z,14.75
2019-04-26T07:32:20.755Z,14.43
2019-04-26T07:35:15.266Z,14.47
2019-04-26T07:38:21.142Z,14.55
2019-04-26T07:41:34.800Z,14.81
2019-04-26T07:44:58.641Z,14.85
2019-04-26T07:47:47.569Z,14.83
2019-04-26T07:50:40.748Z,15.06
2019-04-26T07:53:44.767Z,15.15
2019-04-26T07:56:52.780Z,15.34
2019-04-26T08:00:01.540Z,15.48
2019-04-26T08:02:51.431Z,15.81
2019-04-26T08:05:34.633Z,15.44
2019-04-26T08:08:06.811Z,15.62
2019-04-26T08:10:38.716Z,15.57
2019-04-26T08:13:08.672Z,15.91
2019-04-26T08:16:06.763Z,15.94
2019-04-26T08:18:41.527Z,15.99
2019-04-26T08:21:18.873Z,15.94
2019-04-26T08:23:57.838Z,16.19
2019-04-26T08:26:26.364Z,16.33
2019-04-26T08:28:56.665Z,16.27
2019-04-26T08:31:25.883Z,16.20
2019-04-26T08:33:56.871Z,16.17
2019-04-26T08:36:27.113Z,16.20
2019-04-26T08:38:55.450Z,15.55
2019-04-26T08:41:24.650Z,15.64
2019-04-26T08:44:12.409Z,15.47
2019-04-26T08:47:16.749Z,15.40
2019-04-26T08:49:59.911Z,15.17
2019-04-26T08:52:29.168Z,15.69
2019-04-26T08:54:58.386Z,15.71
2019-04-26T08:57:28.299Z,15.59
2019-04-26T08:59:57.578Z,15.84
2019-04-26T09:02:55.727Z,15.57
2019-04-26T09:05:53.277Z,15.57
2019-04-26T09:08:23.702Z,15.35
2019-04-26T09:10:52.954Z,15.39
2019-04-26T09:13:22.601Z,15.31
2019-04-26T09:16:14.995Z,15.12
2019-04-26T09:18:52.617Z,15.36
2019-04-26T09:21:17.002Z,15.40
2019-04-26T09:24:16.957Z,15.32
2019-04-26T09:26:56.315Z,15.27
2019-04-26T09:29:32.199Z,15.24
2019-04-26T09:32:12.552Z,15.25
2019-04-26T09:34:42.825Z,15.21
2019-04-26T09:37:11.079Z,15.11
2019-04-26T09:39:41.580Z,15.09
2019-04-26T09:42:15.350Z,15.16
2019-04-26T09:44:52.866Z,15.26
2019-04-26T09:47:43.882Z,15.39
2019-04-26T09:50:41.228Z,15.67
2019-04-26T09:53:10.469Z,15.46
2019-04-26T09:55:39.709Z,15.50
2019-04-26T09:58:08.986Z,15.45
2019-04-26T10:00:38.260Z,15.52
2019-04-26T10:03:09.405Z,15.34
2019-04-26T10:05:36.705Z,15.36
2019-04-26T10:08:08.221Z,15.65
2019-04-26T10:10:36.348Z,15.59
2019-04-26T10:13:38.733Z,15.66
2019-04-26T10:16:22.987Z,15.93
2019-04-26T10:19:01.292Z,15.86
2019-04-26T10:21:30.598Z,15.90
2019-04-26T10:24:02.915Z,15.79
2019-04-26T10:26:29.910Z,15.47
2019-04-26T10:28:58.474Z,15.48
2019-04-26T10:31:27.789Z,15.43
2019-04-26T10:33:57.078Z,15.48
2019-04-26T10:36:30.270Z,15.49
2019-04-26T10:38:58.499Z,15.46
2019-04-26T10:41:24.791Z,15.43
2019-04-26T10:43:54.061Z,15.37
2019-04-26T10:46:24.450Z,15.43
2019-04-26T10:48:52.576Z,15.42
2019-04-26T10:51:29.284Z,15.01
2019-04-26T10:54:09.128Z,15.05
2019-04-26T10:56:42.957Z,15.00
2019-04-26T10:59:31.764Z,15.04
2019-04-26T11:01:59.576Z,15.01
2019-04-26T11:04:28.831Z,14.81
2019-04-26T11:07:01.846Z,14.54
2019-04-26T11:09:27.525Z,14.42
2019-04-26T11:11:56.775Z,14.27
2019-04-26T11:14:26.028Z,14.22
2019-04-26T11:16:55.254Z,14.33
2019-04-26T11:19:24.474Z,14.13
2019-04-26T11:21:54.799Z,14.10
2019-04-26T11:24:22.955Z,14.22
2019-04-26T11:26:52.177Z,14.32
2019-04-26T11:29:21.432Z,14.75
2019-04-26T11:31:50.665Z,15.10
2019-04-26T11:34:23.718Z,15.52
2019-04-26T11:36:49.159Z,15.85
2019-04-26T11:39:18.372Z,15.77
2019-04-26T11:41:47.580Z,15.71
2019-04-26T11:44:16.798Z,15.82
2019-04-26T11:46:46.142Z,15.67
2019-04-26T11:49:15.191Z,15.52
2019-04-26T11:51:44.412Z,15.46
2019-04-26T11:54:16.960Z,15.29
2019-04-26T11:56:42.906Z,15.53
2019-04-26T11:59:12.177Z,15.18
2019-04-26T12:01:42.020Z,15.20
2019-04-26T12:04:42.144Z,15.27
2019-04-26T12:07:16.902Z,15.32
2019-04-26T12:09:47.484Z,15.25
2019-04-26T12:12:16.670Z,15.31
2019-04-26T12:14:45.917Z,15.20
2019-04-26T12:17:15.100Z,15.15
2019-04-26T12:19:44.387Z,14.99
2019-04-26T12:22:13.599Z,15.00
2019-04-26T12:24:42.841Z,14.92
2019-04-26T12:27:12.189Z,15.16
2019-04-26T12:29:44.165Z,14.95
2019-04-26T12:32:10.635Z,14.61
2019-04-26T12:34:39.833Z,14.52
2019-04-26T12:37:12.514Z,14.55
2019-04-26T12:39:38.367Z,14.47
2019-04-26T12:42:08.218Z,14.54
2019-04-26T12:44:42.791Z,14.34
2019-04-26T12:47:34.641Z,14.30
2019-04-26T12:50:00.531Z,13.95
2019-04-26T12:52:29.582Z,13.95
2019-04-26T12:54:58.892Z,13.87
2019-04-26T12:57:28.131Z,13.81
2019-04-26T13:00:01.347Z,13.76
2019-04-26T13:02:26.535Z,13.74
2019-04-26T13:04:55.798Z,13.78
2019-04-26T13:07:25.056Z,13.58
2019-04-26T13:10:25.061Z,13.64
2019-04-26T13:13:31.612Z,13.67
2019-04-26T13:16:21.443Z,13.56
2019-04-26T13:18:48.602Z,13.62
2019-04-26T13:21:17.967Z,12.66
2019-04-26T13:23:48.307Z,13.48
2019-04-26T13:26:16.452Z,13.53
2019-04-26T13:28:45.753Z,13.50
2019-04-26T13:31:15.001Z,13.43
2019-04-26T13:33:44.212Z,13.54
2019-04-26T13:36:13.528Z,13.26
2019-04-26T13:38:45.118Z,13.33
2019-04-26T13:41:11.931Z,13.14
2019-04-26T13:43:41.130Z,12.96
2019-04-26T13:46:28.078Z,13.13
2019-04-26T13:49:19.369Z,13.27
2019-04-26T13:51:48.194Z,13.15
2019-04-26T13:54:21.200Z,13.00
2019-04-26T13:56:46.654Z,12.61
2019-04-26T13:59:15.891Z,12.63
2019-04-26T14:01:45.122Z,12.36
2019-04-26T14:04:14.317Z,12.05
2019-04-26T14:06:43.512Z,11.95
2019-04-26T14:09:12.788Z,11.92
2019-04-26T14:11:42.102Z,11.91
2019-04-26T14:14:11.328Z,11.96
2019-04-26T14:16:40.573Z,11.80
2019-04-26T14:19:14.815Z,11.70
2019-04-26T14:21:39.021Z,11.75
2019-04-26T14:24:26.094Z,11.72
2019-04-26T14:27:02.646Z,11.78
2019-04-26T14:29:32.377Z,11.79
2019-04-26T14:32:01.060Z,11.65
2019-04-26T14:34:30.298Z,11.65
2019-04-26T14:37:06.250Z,11.55
2019-04-26T14:39:38.461Z,11.51
2019-04-26T14:41:58.433Z,11.39
2019-04-26T14:44:31.104Z,11.37
2019-04-26T14:46:56.946Z,11.31
2019-04-26T14:49:38.313Z,11.28
2019-04-26T14:51:56.207Z,11.24
2019-04-26T14:54:24.142Z,11.19
2019-04-26T14:56:53.350Z,11.20
2019-04-26T14:59:44.438Z,11.24
2019-04-26T15:02:32.961Z,11.25
2019-04-26T15:05:12.187Z,11.27
2019-04-26T15:07:49.397Z,11.20
2019-04-26T15:10:10.986Z,11.25
2019-04-26T15:12:46.202Z,11.22
2019-04-26T15:15:07.868Z,11.12
2019-04-26T15:17:37.067Z,11.08
2019-04-26T15:20:06.528Z,11.07
2019-04-26T15:22:35.736Z,11.04
2019-04-26T15:25:07.670Z,10.97
2019-04-26T15:27:36.236Z,10.94
2019-04-26T15:30:04.390Z,10.89
2019-04-26T15:32:35.232Z,10.90
2019-04-26T15:35:02.158Z,10.86
2019-04-26T15:37:32.155Z,10.86
2019-04-26T15:40:07.068Z,10.84
2019-04-26T15:43:00.831Z,10.84
2019-04-26T15:45:38.981Z,10.86
2019-04-26T15:48:38.118Z,10.83
2019-04-26T15:51:07.360Z,10.86
2019-04-26T15:53:36.604Z,10.90
2019-04-26T15:56:05.798Z,10.96
2019-04-26T15:58:38.119Z,10.91
2019-04-26T16:01:06.694Z,10.90
2019-04-26T16:03:36.870Z,10.86
2019-04-26T16:06:07.093Z,10.95
2019-04-26T16:08:35.114Z,10.80
2019-04-26T16:11:02.930Z,10.82
2019-04-26T16:13:32.278Z,10.85
2019-04-26T16:15:59.906Z,10.90
2019-04-26T16:18:29.156Z,10.87
2019-04-26T16:20:58.600Z,10.87
2019-04-26T16:23:38.434Z,10.81
2019-04-26T16:25:57.213Z,10.76
2019-04-26T16:28:48.500Z,10.82
2019-04-26T16:31:32.229Z,10.84
2019-04-26T16:34:10.512Z,10.84
2019-04-26T16:36:36.626Z,10.79
2019-04-26T16:39:03.910Z,10.67
2019-04-26T16:41:37.624Z,10.68
2019-04-26T16:44:02.830Z,10.68
2019-04-26T16:46:33.312Z,10.70
2019-04-26T16:49:02.339Z,10.65
2019-04-26T16:51:30.260Z,10.67
2019-04-26T16:54:07.331Z,10.66
2019-04-26T16:56:29.396Z,10.56
2019-04-26T16:58:58.810Z,10.57
2019-04-26T17:01:28.418Z,10.57
2019-04-26T17:03:57.713Z,10.57
2019-04-26T17:06:27.010Z,10.62
2019-04-26T17:09:01.168Z,10.65
2019-04-26T17:11:25.605Z,10.65
2019-04-26T17:13:57.029Z,10.65
2019-04-26T17:16:25.670Z,10.69
2019-04-26T17:18:55.642Z,10.76
2019-04-26T17:21:25.640Z,10.74
2019-04-26T17:24:12.193Z,10.70
2019-04-26T17:26:45.214Z,10.70
2019-04-26T17:29:14.587Z,10.69
2019-04-26T17:31:43.851Z,10.63
2019-04-26T17:34:13.053Z,10.61
2019-04-26T17:36:42.389Z,10.62
2019-04-26T17:39:16.944Z,10.63
2019-04-26T17:41:45.107Z,10.61
2019-04-26T17:44:13.131Z,10.62
2019-04-26T17:46:39.804Z,10.61
2019-04-26T17:49:10.994Z,10.56
2019-04-26T17:51:43.137Z,10.50
2019-04-26T17:54:32.158Z,10.47
2019-04-26T17:56:39.564Z,10.42
2019-04-26T17:59:09.344Z,10.44
2019-04-26T18:01:45.226Z,10.43
2019-04-26T18:04:04.924Z,10.44
2019-04-26T18:06:34.085Z,10.42
2019-04-26T18:09:03.393Z,10.39
2019-04-26T18:11:33.041Z,10.38
2019-04-26T18:14:01.910Z,10.38
2019-04-26T18:16:31.165Z,10.37
2019-04-26T18:19:30.299Z,10.36
2019-04-26T18:22:05.413Z,10.40
2019-04-26T18:24:35.091Z,10.36
2019-04-26T18:27:03.993Z,10.30
2019-04-26T18:29:33.734Z,10.32
2019-04-26T18:32:03.691Z,10.28
2019-04-26T18:34:37.390Z,10.27
2019-04-26T18:37:04.249Z,10.25
2019-04-26T18:39:30.606Z,10.20
2019-04-26T18:42:04.359Z,10.23
2019-04-26T18:44:38.347Z,10.19
2019-04-26T18:47:05.237Z,10.22
2019-04-26T18:49:34.464Z,10.18
2019-04-26T18:52:03.890Z,10.17
2019-04-26T18:54:37.847Z,10.18
2019-04-26T18:57:09.510Z,10.17
2019-04-26T18:59:36.400Z,10.16
2019-04-26T19:02:05.663Z,10.17
2019-04-26T19:04:34.901Z,10.19
2019-04-26T19:07:04.218Z,10.21
2019-04-26T19:09:55.895Z,10.24
2019-04-26T19:12:02.733Z,10.27
2019-04-26T19:15:03.145Z,10.26
2019-04-26T19:17:40.691Z,10.24
2019-04-26T19:20:27.636Z,10.26
2019-04-26T19:22:58.834Z,10.32
2019-04-26T19:25:29.785Z,10.33
2019-04-26T19:27:58.642Z,10.32
2019-04-26T19:30:26.609Z,10.33
2019-04-26T19:32:55.910Z,10.34
2019-04-26T19:35:25.230Z,10.37
2019-04-26T19:37:54.534Z,10.37
2019-04-26T19:40:23.784Z,10.39
2019-04-26T19:42:57.375Z,10.35
2019-04-26T19:45:39.523Z,10.32
2019-04-26T19:48:31.456Z,10.31
2019-04-26T19:51:09.291Z,10.30
2019-04-26T19:53:51.716Z,10.30
2019-04-26T19:56:27.476Z,10.30
2019-04-26T19:58:57.373Z,10.27
2019-04-26T20:01:24.807Z,10.23
2019-04-26T20:03:52.119Z,10.18
2019-04-26T20:06:19.939Z,10.18
2019-04-26T20:08:49.626Z,10.15
2019-04-26T20:11:18.846Z,10.15
2019-04-26T20:13:53.486Z,10.16
2019-04-26T20:16:16.981Z,10.15
2019-04-26T20:18:46.315Z,10.20
2019-04-26T20:21:15.659Z,10.20
2019-04-26T20:23:47.368Z,10.22
2019-04-26T20:26:14.046Z,10.24
2019-04-26T20:28:43.448Z,10.23
2019-04-26T20:31:47.507Z,10.23
2019-04-26T20:34:16.663Z,10.22
2019-04-26T20:36:47.620Z,10.21
2019-04-26T20:39:12.522Z,10.25
2019-04-26T20:41:40.814Z,10.26
2019-04-26T20:44:10.747Z,10.23
2019-04-26T20:46:39.434Z,10.20
2019-04-26T20:49:09.314Z,10.22
2019-04-26T20:51:42.200Z,10.17
2019-04-26T20:54:10.713Z,10.18
2019-04-26T20:56:36.579Z,10.15
2019-04-26T20:59:05.846Z,10.14
2019-04-26T21:01:35.066Z,10.13
2019-04-26T21:04:04.311Z,10.16
2019-04-26T21:06:36.812Z,10.14
2019-04-26T21:09:06.267Z,10.16
2019-04-26T21:11:37.212Z,10.16
2019-04-26T21:14:07.162Z,10.15
2019-04-26T21:16:32.279Z,10.16
2019-04-26T21:19:01.749Z,10.12
2019-04-26T21:21:29.081Z,10.15
2019-04-26T21:23:58.294Z,10.12
2019-04-26T21:26:54.451Z,10.16
2019-04-26T21:29:38.848Z,10.16
2019-04-26T21:32:16.283Z,10.12
2019-04-26T21:34:50.463Z,10.11
2019-04-26T21:37:49.435Z,10.11
2019-04-26T21:40:23.314Z,10.07
2019-04-26T21:42:48.662Z,10.07
2019-04-26T21:45:21.749Z,10.04
2019-04-26T21:47:47.095Z,10.04
2019-04-26T21:50:16.376Z,10.04
2019-04-26T21:52:45.762Z,10.04
2019-04-26T21:55:16.713Z,10.06
2019-04-26T21:57:44.038Z,10.07
2019-04-26T22:00:30.711Z,10.06
2019-04-26T22:02:59.911Z,10.06
2019-04-26T22:05:29.146Z,10.03
2019-04-26T22:07:58.363Z,10.03
2019-04-26T22:10:43.717Z,10.04
2019-04-26T22:13:13.861Z,10.03
2019-04-26T22:15:59.087Z,10.03
2019-04-26T22:18:33.134Z,10.06
2019-04-26T22:21:07.995Z,10.06
2019-04-26T22:23:59.244Z,10.07
2019-04-26T22:26:28.483Z,10.07
2019-04-26T22:29:00.161Z,10.09
2019-04-26T22:31:26.978Z,10.09
2019-04-26T22:33:56.201Z,10.09
2019-04-26T22:36:27.482Z,10.06
2019-04-26T22:38:57.085Z,10.04
2019-04-26T22:41:24.476Z,10.05
2019-04-26T22:43:56.559Z,10.03
2019-04-26T22:46:47.288Z,10.02
2019-04-26T22:49:13.333Z,10.00
2019-04-26T22:51:43.579Z,9.98
2019-04-26T22:54:11.339Z,9.98
2019-04-26T22:56:40.576Z,9.99
2019-04-26T22:59:09.800Z,9.98
2019-04-26T23:01:43.628Z,9.94
2019-04-26T23:04:08.220Z,9.93
2019-04-26T23:06:37.438Z,9.90
2019-04-26T23:09:11.500Z,9.88
2019-04-26T23:11:39.513Z,9.89
2019-04-26T23:14:27.991Z,9.87
2019-04-26T23:17:19.269Z,9.87
2019-04-26T23:19:58.689Z,9.86
2019-04-26T23:22:30.871Z,9.86
2019-04-26T23:24:58.176Z,9.86
2019-04-26T23:27:26.396Z,9.85
2019-04-26T23:29:58.340Z,9.81
2019-04-26T23:32:24.959Z,9.82
2019-04-26T23:34:54.183Z,9.82
2019-04-26T23:37:25.934Z,9.80
2019-04-26T23:39:53.630Z,9.78
2019-04-26T23:42:23.266Z,9.77
2019-04-26T23:44:51.119Z,9.76
2019-04-26T23:47:23.045Z,9.77
2019-04-26T23:49:53.827Z,9.74
2019-04-26T23:52:19.512Z,9.72
2019-04-26T23:54:47.958Z,9.68
2019-04-26T23:57:17.168Z,9.66
2019-04-26T23:59:46.533Z,9.66
